createdAt,value
2017-07-02T00:01:30.104Z,90.10
2017-07-02T00:03:58.536Z,90.10
2017-07-02T00:06:26.957Z,90.10
2017-07-02T00:08:55.393Z,89.90
2017-07-02T00:11:23.816Z,89.70
2017-07-02T00:13:52.232Z,89.70
2017-07-02T00:16:20.677Z,89.80
2017-07-02T00:18:49.108Z,90.00
2017-07-02T00:21:17.551Z,90.00
2017-07-02T00:23:45.975Z,90.00
2017-07-02T00:26:14.393Z,90.00
2017-07-02T00:28:42.820Z,90.10
2017-07-02T00:31:11.244Z,89.90
2017-07-02T00:33:40.456Z,89.80
2017-07-02T00:36:08.878Z,89.80
2017-07-02T00:38:37.288Z,89.90
2017-07-02T00:41:06.479Z,90.10
2017-07-02T00:43:35.658Z,90.10
2017-07-02T00:46:04.105Z,90.10
2017-07-02T00:48:32.528Z,90.10
2017-07-02T00:51:00.954Z,90.20
2017-07-02T00:53:29.412Z,90.20
2017-07-02T00:55:57.831Z,90.10
2017-07-02T00:58:26.279Z,90.00
2017-07-02T01:00:54.707Z,89.90
2017-07-02T01:03:23.114Z,89.70
2017-07-02T01:05:52.321Z,90.20
2017-07-02T01:08:20.744Z,90.20
2017-07-02T01:10:49.184Z,90.20
2017-07-02T01:13:17.611Z,90.30
2017-07-02T01:15:46.023Z,90.40
2017-07-02T01:18:15.220Z,90.80
2017-07-02T01:20:44.344Z,90.40
2017-07-02T01:23:12.783Z,90.40
2017-07-02T01:25:41.204Z,90.40
2017-07-02T01:28:09.634Z,90.40
2017-07-02T01:30:38.059Z,90.20
2017-07-02T01:33:06.484Z,90.10
2017-07-02T01:35:34.931Z,90.00
2017-07-02T01:38:03.340Z,90.10
2017-07-02T01:40:31.747Z,90.00
2017-07-02T01:43:00.962Z,89.90
2017-07-02T01:45:29.388Z,89.90
2017-07-02T01:47:57.823Z,90.00
2017-07-02T01:50:25.551Z,90.00
2017-07-02T01:52:53.991Z,90.00
2017-07-02T01:55:21.721Z,90.00
2017-07-02T01:57:49.785Z,90.00
2017-07-02T02:00:18.292Z,90.00
2017-07-02T02:03:08.657Z,90.00
2017-07-02T02:05:37.491Z,90.10
2017-07-02T02:08:05.552Z,90.10
2017-07-02T02:10:34.228Z,90.10
2017-07-02T02:13:02.649Z,90.20
2017-07-02T02:15:31.079Z,90.20
2017-07-02T02:17:59.531Z,90.10
2017-07-02T02:20:28.719Z,90.20
2017-07-02T02:22:57.925Z,90.20
2017-07-02T02:25:27.111Z,90.20
2017-07-02T02:27:55.516Z,90.20
2017-07-02T02:30:25.409Z,90.30
2017-07-02T02:32:54.588Z,90.10
2017-07-02T02:35:23.012Z,90.00
2017-07-02T02:37:51.431Z,90.00
2017-07-02T02:40:19.859Z,90.00
2017-07-02T02:42:49.051Z,89.80
2017-07-02T02:45:18.241Z,89.60
2017-07-02T02:47:47.447Z,89.60
2017-07-02T02:50:15.861Z,89.60
2017-07-02T02:52:44.281Z,89.50
2017-07-02T02:55:12.754Z,89.50
2017-07-02T02:57:41.175Z,89.40
2017-07-02T03:00:09.613Z,89.70
2017-07-02T03:02:38.137Z,89.60
2017-07-02T03:05:06.549Z,89.50
2017-07-02T03:07:34.984Z,89.60
2017-07-02T03:10:03.399Z,89.40
2017-07-02T03:12:31.837Z,89.60
2017-07-02T03:15:01.027Z,89.50
2017-07-02T03:17:30.211Z,89.70
2017-07-02T03:19:58.643Z,89.70
2017-07-02T03:22:27.065Z,89.70
2017-07-02T03:24:55.667Z,89.70
2017-07-02T03:27:24.844Z,90.00
2017-07-02T03:29:53.288Z,90.00
2017-07-02T03:32:21.715Z,89.80
2017-07-02T03:34:50.900Z,90.00
2017-07-02T03:37:19.331Z,90.00
2017-07-02T03:39:47.746Z,90.10
2017-07-02T03:42:16.153Z,90.00
2017-07-02T03:44:45.345Z,90.10
2017-07-02T03:47:14.523Z,90.10
2017-07-02T03:49:42.961Z,90.10
2017-07-02T03:52:11.380Z,90.10
2017-07-02T03:54:39.800Z,90.10
2017-07-02T03:57:08.239Z,90.00
2017-07-02T03:59:36.644Z,90.00
2017-07-02T04:02:05.851Z,90.00
2017-07-02T04:04:34.265Z,89.90
2017-07-02T04:07:02.676Z,90.00
2017-07-02T04:09:31.106Z,89.90
2017-07-02T04:11:59.536Z,89.70
2017-07-02T04:14:27.971Z,89.70
2017-07-02T04:16:56.383Z,89.70
2017-07-02T04:19:24.797Z,89.50
2017-07-02T04:21:53.230Z,89.20
2017-07-02T04:24:21.648Z,89.20
2017-07-02T04:26:50.862Z,89.60
2017-07-02T04:29:19.267Z,89.50
2017-07-02T04:31:47.676Z,89.30
2017-07-02T04:34:16.099Z,89.00
2017-07-02T04:36:44.535Z,89.10
2017-07-02T04:39:13.052Z,88.60
2017-07-02T04:41:41.469Z,88.90
2017-07-02T04:44:09.899Z,88.70
2017-07-02T04:46:39.120Z,89.00
2017-07-02T04:49:07.543Z,89.00
2017-07-02T04:51:35.966Z,88.80
2017-07-02T04:54:04.393Z,88.30
2017-07-02T04:56:32.802Z,88.20
2017-07-02T04:59:02.005Z,88.00
2017-07-02T05:01:31.188Z,88.50
2017-07-02T05:04:00.384Z,88.20
2017-07-02T05:06:29.584Z,87.30
2017-07-02T05:08:58.767Z,86.90
2017-07-02T05:11:27.189Z,86.80
2017-07-02T05:13:55.623Z,86.90
2017-07-02T05:16:24.054Z,86.80
2017-07-02T05:18:52.512Z,87.50
2017-07-02T05:21:21.712Z,87.00
2017-07-02T05:23:50.914Z,87.10
2017-07-02T05:26:19.344Z,87.10
2017-07-02T05:28:47.763Z,86.10
2017-07-02T05:31:16.959Z,86.50
2017-07-02T05:33:46.148Z,85.70
2017-07-02T05:36:15.343Z,85.90
2017-07-02T05:38:44.535Z,85.40
2017-07-02T05:41:13.721Z,84.50
2017-07-02T05:43:42.154Z,84.50
2017-07-02T05:46:10.580Z,84.40
2017-07-02T05:48:39.106Z,84.60
2017-07-02T05:51:07.543Z,83.80
2017-07-02T05:53:35.959Z,84.20
2017-07-02T05:56:04.398Z,83.90
2017-07-02T05:58:32.861Z,84.10
2017-07-02T06:01:01.964Z,84.10
2017-07-02T06:03:30.424Z,83.40
2017-07-02T06:05:58.840Z,84.20
2017-07-02T06:08:28.216Z,83.90
2017-07-02T06:10:56.673Z,83.90
2017-07-02T06:13:25.081Z,84.50
2017-07-02T06:15:53.621Z,84.70
2017-07-02T06:18:22.044Z,84.40
2017-07-02T06:20:50.485Z,83.80
2017-07-02T06:23:19.077Z,84.00
2017-07-02T06:25:47.654Z,84.40
2017-07-02T06:28:16.306Z,83.70
2017-07-02T06:30:45.491Z,83.90
2017-07-02T06:33:14.939Z,84.30
2017-07-02T06:35:43.361Z,84.30
2017-07-02T06:38:11.789Z,84.50
2017-07-02T06:40:40.248Z,84.30
2017-07-02T06:43:08.956Z,83.80
2017-07-02T06:45:37.592Z,84.20
2017-07-02T06:48:06.841Z,84.50
2017-07-02T06:50:35.271Z,84.50
2017-07-02T06:53:04.627Z,85.10
2017-07-02T06:55:33.067Z,85.10
2017-07-02T06:58:02.351Z,84.80
2017-07-02T07:00:31.552Z,85.60
2017-07-02T07:03:01.015Z,85.60
2017-07-02T07:05:30.208Z,84.90
2017-07-02T07:07:58.632Z,84.80
2017-07-02T07:10:27.112Z,85.50
2017-07-02T07:12:56.825Z,84.00
2017-07-02T07:15:25.287Z,83.90
2017-07-02T07:17:53.738Z,84.20
2017-07-02T07:20:22.312Z,84.40
2017-07-02T07:22:50.755Z,83.90
2017-07-02T07:25:19.960Z,84.40
2017-07-02T07:27:48.582Z,84.40
2017-07-02T07:30:17.027Z,84.80
2017-07-02T07:32:45.441Z,84.80
2017-07-02T07:35:14.699Z,84.00
2017-07-02T07:37:43.120Z,83.30
2017-07-02T07:40:12.056Z,83.30
2017-07-02T07:42:42.410Z,82.50
2017-07-02T07:45:11.109Z,82.30
2017-07-02T07:47:39.709Z,82.40
2017-07-02T07:50:08.258Z,82.40
2017-07-02T07:52:36.760Z,82.40
2017-07-02T07:55:05.158Z,82.10
2017-07-02T07:57:33.409Z,82.40
2017-07-02T08:00:01.672Z,82.20
2017-07-02T08:02:30.331Z,81.30
2017-07-02T08:04:58.742Z,81.90
2017-07-02T08:07:27.172Z,81.20
2017-07-02T08:09:58.094Z,81.40
2017-07-02T08:12:26.575Z,81.40
2017-07-02T08:14:54.979Z,81.10
2017-07-02T08:17:24.049Z,80.60
2017-07-02T08:19:52.485Z,79.70
2017-07-02T08:22:20.886Z,80.70
2017-07-02T08:24:49.444Z,81.00
2017-07-02T08:27:17.892Z,80.30
2017-07-02T08:29:46.340Z,80.70
2017-07-02T08:32:14.924Z,81.10
2017-07-02T08:34:43.407Z,81.30
2017-07-02T08:37:11.843Z,81.30
2017-07-02T08:39:40.272Z,81.60
2017-07-02T08:42:09.462Z,81.30
2017-07-02T08:44:38.240Z,81.20
2017-07-02T08:47:06.652Z,81.30
2017-07-02T08:49:35.266Z,80.60
2017-07-02T08:52:03.966Z,80.80
2017-07-02T08:54:32.382Z,81.30
2017-07-02T08:57:01.813Z,82.00
2017-07-02T08:59:30.633Z,81.20
2017-07-02T09:01:59.074Z,81.40
2017-07-02T09:04:27.504Z,81.90
2017-07-02T09:06:55.919Z,82.00
2017-07-02T09:09:25.342Z,80.30
2017-07-02T09:11:53.762Z,80.30
2017-07-02T09:14:22.497Z,79.70
2017-07-02T09:16:50.973Z,79.40
2017-07-02T09:19:19.401Z,79.00
2017-07-02T09:21:47.833Z,78.90
2017-07-02T09:24:16.251Z,78.90
2017-07-02T09:26:44.699Z,79.60
2017-07-02T09:29:13.117Z,78.50
2017-07-02T09:31:41.535Z,79.10
2017-07-02T09:34:10.731Z,78.80
2017-07-02T09:36:39.911Z,78.00
2017-07-02T09:39:08.629Z,78.00
2017-07-02T09:41:37.100Z,77.70
2017-07-02T09:44:07.142Z,78.30
2017-07-02T09:46:36.744Z,78.20
2017-07-02T09:49:05.231Z,78.30
2017-07-02T09:51:33.689Z,77.60
2017-07-02T09:54:03.059Z,77.80
2017-07-02T09:56:31.538Z,77.80
2017-07-02T09:58:59.958Z,77.80
2017-07-02T10:01:29.748Z,76.90
2017-07-02T10:03:59.245Z,77.40
2017-07-02T10:06:28.432Z,76.50
2017-07-02T10:08:57.230Z,76.40
2017-07-02T10:11:26.424Z,74.60
2017-07-02T10:13:55.622Z,74.90
2017-07-02T10:16:24.619Z,74.80
2017-07-02T10:18:53.811Z,75.50
2017-07-02T10:21:23.184Z,76.70
2017-07-02T10:23:51.866Z,76.60
2017-07-02T10:26:20.296Z,75.20
2017-07-02T10:28:48.738Z,76.00
2017-07-02T10:31:18.159Z,74.80
2017-07-02T10:33:47.388Z,74.70
2017-07-02T10:36:15.984Z,73.90
2017-07-02T10:38:44.417Z,74.90
2017-07-02T10:41:16.178Z,74.50
2017-07-02T10:43:45.392Z,73.60
2017-07-02T10:46:15.483Z,72.60
2017-07-02T10:48:44.566Z,72.60
2017-07-02T10:51:12.983Z,73.60
2017-07-02T10:53:41.419Z,73.00
2017-07-02T10:56:10.049Z,73.40
2017-07-02T10:58:38.582Z,72.70
2017-07-02T11:01:07.065Z,74.50
2017-07-02T11:03:35.441Z,74.60
2017-07-02T11:06:05.663Z,74.20
2017-07-02T11:08:35.152Z,74.30
2017-07-02T11:11:03.595Z,75.10
2017-07-02T11:13:32.236Z,74.50
2017-07-02T11:16:00.653Z,74.80
2017-07-02T11:18:29.088Z,74.50
2017-07-02T11:20:57.510Z,74.20
2017-07-02T11:23:26.696Z,74.60
2017-07-02T11:25:55.903Z,75.40
2017-07-02T11:28:25.086Z,75.10
2017-07-02T11:30:54.287Z,74.00
2017-07-02T11:33:23.475Z,74.00
2017-07-02T11:35:52.788Z,73.40
2017-07-02T11:38:21.220Z,73.40
2017-07-02T11:40:50.600Z,73.80
2017-07-02T11:43:19.009Z,74.30
2017-07-02T11:45:47.435Z,75.40
2017-07-02T11:48:15.891Z,75.60
2017-07-02T11:50:45.092Z,75.50
2017-07-02T11:53:14.275Z,74.90
2017-07-02T11:55:42.534Z,74.70
2017-07-02T11:58:10.962Z,75.70
2017-07-02T12:00:40.181Z,74.90
2017-07-02T12:03:08.666Z,73.60
2017-07-02T12:05:37.088Z,74.20
2017-07-02T12:08:05.335Z,73.70
2017-07-02T12:10:33.743Z,73.30
2017-07-02T12:13:02.947Z,74.00
2017-07-02T12:15:32.147Z,74.00
2017-07-02T12:18:01.339Z,75.40
2017-07-02T12:20:29.839Z,74.20
2017-07-02T12:22:57.912Z,73.40
2017-07-02T12:25:25.672Z,74.00
2017-07-02T12:27:54.111Z,73.60
2017-07-02T12:30:22.287Z,73.90
2017-07-02T12:32:50.639Z,74.00
2017-07-02T12:35:18.730Z,75.60
2017-07-02T12:37:46.812Z,75.80
2017-07-02T12:40:15.156Z,75.10
2017-07-02T12:42:44.556Z,74.50
2017-07-02T12:45:12.471Z,74.50
2017-07-02T12:47:42.173Z,75.50
2017-07-02T12:50:11.008Z,75.40
2017-07-02T12:52:39.081Z,75.30
2017-07-02T12:55:07.501Z,74.60
2017-07-02T12:57:35.938Z,73.70
2017-07-02T13:00:04.401Z,75.10
2017-07-02T13:02:33.515Z,75.10
2017-07-02T13:05:01.962Z,75.30
2017-07-02T13:07:31.335Z,75.00
2017-07-02T13:09:59.961Z,75.00
2017-07-02T13:12:28.764Z,74.70
2017-07-02T13:14:57.231Z,74.80
2017-07-02T13:17:25.656Z,75.00
2017-07-02T13:19:54.090Z,75.30
2017-07-02T13:22:22.523Z,74.30
2017-07-02T13:24:50.943Z,75.70
2017-07-02T13:27:19.389Z,74.10
2017-07-02T13:29:48.576Z,74.00
2017-07-02T13:32:17.103Z,74.00
2017-07-02T13:34:45.529Z,74.80
2017-07-02T13:37:13.947Z,74.50
2017-07-02T13:39:42.398Z,74.00
2017-07-02T13:42:10.818Z,73.60
2017-07-02T13:44:39.243Z,73.70
2017-07-02T13:47:07.688Z,73.90
2017-07-02T13:49:36.146Z,74.00
2017-07-02T13:52:04.589Z,73.60
2017-07-02T13:54:33.014Z,73.80
2017-07-02T13:57:01.419Z,73.90
2017-07-02T13:59:29.857Z,73.60
2017-07-02T14:01:58.276Z,73.80
2017-07-02T14:04:26.706Z,74.10
2017-07-02T14:06:55.896Z,74.40
2017-07-02T14:09:25.095Z,74.50
2017-07-02T14:11:53.532Z,74.40
2017-07-02T14:14:21.957Z,75.80
2017-07-02T14:16:51.156Z,77.90
2017-07-02T14:19:20.349Z,78.30
2017-07-02T14:21:49.562Z,77.70
2017-07-02T14:24:18.038Z,77.50
2017-07-02T14:26:47.145Z,77.70
2017-07-02T14:29:15.586Z,78.70
2017-07-02T14:31:44.774Z,78.20
2017-07-02T14:34:13.224Z,77.80
2017-07-02T14:36:41.641Z,77.50
2017-07-02T14:39:10.048Z,77.90
2017-07-02T14:41:38.479Z,77.40
2017-07-02T14:44:06.909Z,77.50
2017-07-02T14:46:35.352Z,76.60
2017-07-02T14:49:03.785Z,76.20
2017-07-02T14:51:32.205Z,75.80
2017-07-02T14:54:00.745Z,75.60
2017-07-02T14:56:29.167Z,75.10
2017-07-02T14:58:57.604Z,75.60
2017-07-02T15:01:26.021Z,75.70
2017-07-02T15:03:54.451Z,75.60
2017-07-02T15:06:22.901Z,75.70
2017-07-02T15:08:52.008Z,75.50
2017-07-02T15:11:20.464Z,73.90
2017-07-02T15:13:48.901Z,72.30
2017-07-02T15:16:17.321Z,73.70
2017-07-02T15:18:46.533Z,73.10
2017-07-02T15:21:15.361Z,73.10
2017-07-02T15:23:43.832Z,73.10
2017-07-02T15:26:12.244Z,72.80
2017-07-02T15:28:40.679Z,73.50
2017-07-02T15:31:09.098Z,73.90
2017-07-02T15:33:38.207Z,73.00
2017-07-02T15:36:06.647Z,73.90
2017-07-02T15:38:35.066Z,73.80
2017-07-02T15:41:03.142Z,74.70
2017-07-02T15:43:31.576Z,74.80
2017-07-02T15:45:59.649Z,74.80
2017-07-02T15:48:28.102Z,75.10
2017-07-02T15:50:56.529Z,75.00
2017-07-02T15:53:24.946Z,76.20
2017-07-02T15:55:54.126Z,76.30
2017-07-02T15:58:22.545Z,76.20
2017-07-02T16:00:50.988Z,75.80
2017-07-02T16:03:20.205Z,76.10
2017-07-02T16:05:48.688Z,76.10
2017-07-02T16:08:17.125Z,76.20
2017-07-02T16:10:45.538Z,76.10
2017-07-02T16:13:14.954Z,75.60
2017-07-02T16:15:43.364Z,76.30
2017-07-02T16:18:11.782Z,76.10
2017-07-02T16:20:40.215Z,74.60
2017-07-02T16:23:08.650Z,75.60
2017-07-02T16:25:37.985Z,75.40
2017-07-02T16:28:06.407Z,75.30
2017-07-02T16:30:34.833Z,75.10
2017-07-02T16:33:03.281Z,74.70
2017-07-02T16:35:32.514Z,74.30
2017-07-02T16:38:01.039Z,74.30
2017-07-02T16:40:29.581Z,74.50
2017-07-02T16:42:58.029Z,74.80
2017-07-02T16:45:27.151Z,74.50
2017-07-02T16:47:55.768Z,74.20
2017-07-02T16:50:24.401Z,75.00
2017-07-02T16:52:52.829Z,74.40
2017-07-02T16:55:21.636Z,74.40
2017-07-02T16:57:50.084Z,74.30
2017-07-02T17:00:18.564Z,74.00
2017-07-02T17:02:47.067Z,74.30
2017-07-02T17:05:15.747Z,75.20
2017-07-02T17:07:44.196Z,75.40
2017-07-02T17:10:12.639Z,75.60
2017-07-02T17:12:41.813Z,75.60
2017-07-02T17:15:10.392Z,75.60
2017-07-02T17:17:38.826Z,76.00
2017-07-02T17:20:07.249Z,76.40
2017-07-02T17:22:36.116Z,76.50
2017-07-02T17:25:04.541Z,77.20
2017-07-02T17:27:33.750Z,76.60
2017-07-02T17:30:02.228Z,76.60
2017-07-02T17:32:30.995Z,76.30
2017-07-02T17:35:00.256Z,76.90
2017-07-02T17:37:28.752Z,76.20
2017-07-02T17:39:57.205Z,76.50
2017-07-02T17:42:25.636Z,76.20
2017-07-02T17:44:54.817Z,75.90
2017-07-02T17:47:23.249Z,75.90
2017-07-02T17:49:51.677Z,75.40
2017-07-02T17:52:20.200Z,75.60
2017-07-02T17:54:48.641Z,75.40
2017-07-02T17:57:17.080Z,74.40
2017-07-02T17:59:45.520Z,73.80
2017-07-02T18:02:13.950Z,73.60
2017-07-02T18:04:42.377Z,73.10
2017-07-02T18:07:11.566Z,72.40
2017-07-02T18:09:40.787Z,71.10
2017-07-02T18:12:09.290Z,71.00
2017-07-02T18:14:37.520Z,71.80
2017-07-02T18:17:06.732Z,70.90
2017-07-02T18:19:34.967Z,70.90
2017-07-02T18:22:03.391Z,69.80
2017-07-02T18:24:31.969Z,69.70
2017-07-02T18:27:00.388Z,68.90
2017-07-02T18:29:28.829Z,68.90
2017-07-02T18:31:57.248Z,68.80
2017-07-02T18:34:25.698Z,69.10
2017-07-02T18:36:54.130Z,68.20
2017-07-02T18:39:22.559Z,67.60
2017-07-02T18:41:50.968Z,67.30
2017-07-02T18:44:19.403Z,66.00
2017-07-02T18:46:48.532Z,65.60
2017-07-02T18:49:16.968Z,65.10
2017-07-02T18:51:45.385Z,65.00
2017-07-02T18:54:13.822Z,65.50
2017-07-02T18:56:43.012Z,64.60
2017-07-02T18:59:12.959Z,65.80
2017-07-02T19:01:41.388Z,65.50
2017-07-02T19:04:10.535Z,65.10
2017-07-02T19:06:38.992Z,66.00
2017-07-02T19:09:07.428Z,66.90
2017-07-02T19:11:36.802Z,66.80
2017-07-02T19:14:05.250Z,66.80
2017-07-02T19:16:34.435Z,68.00
2017-07-02T19:19:04.427Z,67.80
2017-07-02T19:21:32.873Z,67.80
2017-07-02T19:24:01.363Z,67.80
2017-07-02T19:26:29.851Z,67.30
2017-07-02T19:28:58.285Z,67.90
2017-07-02T19:31:27.647Z,68.20
2017-07-02T19:33:56.194Z,68.10
2017-07-02T19:36:24.662Z,68.00
2017-07-02T19:38:53.127Z,68.40
2017-07-02T19:41:21.565Z,69.20
2017-07-02T19:43:50.012Z,68.90
2017-07-02T19:46:18.431Z,69.20
2017-07-02T19:48:46.882Z,68.90
2017-07-02T19:51:15.288Z,69.90
2017-07-02T19:53:43.732Z,69.50
2017-07-02T19:56:12.165Z,68.80
2017-07-02T19:58:41.346Z,68.80
2017-07-02T20:01:10.474Z,68.70
2017-07-02T20:03:38.914Z,68.80
2017-07-02T20:06:07.329Z,68.30
2017-07-02T20:08:36.532Z,67.70
2017-07-02T20:11:04.948Z,67.70
2017-07-02T20:13:33.368Z,67.80
2017-07-02T20:16:01.666Z,68.90
2017-07-02T20:18:30.153Z,67.50
2017-07-02T20:20:58.637Z,67.80
2017-07-02T20:23:27.028Z,67.40
2017-07-02T20:25:55.452Z,67.70
2017-07-02T20:28:23.924Z,67.10
2017-07-02T20:30:52.344Z,67.30
2017-07-02T20:33:20.798Z,67.30
2017-07-02T20:35:50.149Z,67.60
2017-07-02T20:38:18.622Z,67.60
2017-07-02T20:40:47.049Z,67.60
2017-07-02T20:43:15.474Z,67.60
2017-07-02T20:45:45.352Z,67.90
2017-07-02T20:48:14.568Z,67.90
2017-07-02T20:50:43.004Z,67.90
2017-07-02T20:53:11.437Z,68.50
2017-07-02T20:55:39.845Z,68.60
2017-07-02T20:58:08.297Z,68.50
2017-07-02T21:00:36.706Z,68.50
2017-07-02T21:03:05.138Z,69.10
2017-07-02T21:05:33.565Z,69.50
2017-07-02T21:08:01.990Z,69.70
2017-07-02T21:10:31.231Z,70.20
2017-07-02T21:12:59.650Z,70.20
2017-07-02T21:15:28.831Z,71.20
2017-07-02T21:17:57.301Z,70.60
2017-07-02T21:20:25.730Z,70.30
2017-07-02T21:22:54.928Z,71.30
2017-07-02T21:25:23.382Z,71.20
2017-07-02T21:27:51.791Z,71.50
2017-07-02T21:30:20.213Z,71.80
2017-07-02T21:32:48.651Z,72.20
2017-07-02T21:35:17.104Z,72.50
2017-07-02T21:37:46.344Z,72.30
2017-07-02T21:40:14.752Z,72.30
2017-07-02T21:42:43.184Z,72.70
2017-07-02T21:45:11.619Z,72.80
2017-07-02T21:47:40.057Z,72.80
2017-07-02T21:50:08.465Z,73.10
2017-07-02T21:52:36.872Z,73.20
2017-07-02T21:55:06.064Z,73.80
2017-07-02T21:57:35.257Z,73.50
2017-07-02T22:00:03.712Z,74.30
2017-07-02T22:02:31.784Z,73.50
2017-07-02T22:05:00.195Z,73.60
2017-07-02T22:07:29.403Z,73.90
2017-07-02T22:09:58.403Z,74.00
2017-07-02T22:12:26.870Z,73.90
2017-07-02T22:14:56.037Z,73.90
2017-07-02T22:17:24.456Z,73.80
2017-07-02T22:19:52.877Z,74.00
2017-07-02T22:22:21.327Z,74.00
2017-07-02T22:24:49.769Z,74.20
2017-07-02T22:27:18.298Z,74.50
2017-07-02T22:29:46.743Z,74.50
2017-07-02T22:32:15.877Z,74.50
2017-07-02T22:34:44.309Z,74.50
2017-07-02T22:37:13.644Z,74.80
2017-07-02T22:39:42.060Z,74.80
2017-07-02T22:42:10.531Z,74.60
2017-07-02T22:44:38.973Z,75.10
2017-07-02T22:47:07.401Z,75.20
2017-07-02T22:49:35.840Z,75.30
2017-07-02T22:52:04.248Z,75.10
2017-07-02T22:54:32.676Z,74.80
2017-07-02T22:57:01.864Z,75.00
2017-07-02T22:59:31.040Z,74.70
2017-07-02T23:01:59.489Z,74.70
2017-07-02T23:04:27.913Z,74.70
2017-07-02T23:06:57.095Z,75.90
2017-07-02T23:09:25.517Z,75.00
2017-07-02T23:11:53.948Z,74.80
2017-07-02T23:14:22.374Z,75.20
2017-07-02T23:16:50.791Z,75.50
2017-07-02T23:19:19.220Z,75.60
2017-07-02T23:21:48.442Z,75.60
2017-07-02T23:24:16.857Z,75.50
2017-07-02T23:26:45.290Z,75.60
2017-07-02T23:29:13.697Z,75.70
2017-07-02T23:31:42.108Z,75.70
2017-07-02T23:34:10.533Z,75.80
2017-07-02T23:36:38.954Z,76.10
2017-07-02T23:39:07.395Z,76.10
2017-07-02T23:41:35.828Z,76.20
2017-07-02T23:44:05.013Z,76.60
2017-07-02T23:46:33.464Z,76.50
2017-07-02T23:49:01.900Z,77.00
2017-07-02T23:51:30.332Z,77.10
2017-07-02T23:53:58.755Z,77.30
2017-07-02T23:56:27.928Z,77.40
2017-07-02T23:58:56.376Z,77.30
